createdAt,value
2022-09-17T00:01:24.476Z,12.20
2022-09-17T00:03:53.893Z,12.20
2022-09-17T00:06:22.351Z,12.10
2022-09-17T00:08:50.010Z,12.10
2022-09-17T00:11:21.998Z,12.10
2022-09-17T00:13:50.865Z,12.00
2022-09-17T00:16:31.242Z,12.00
2022-09-17T00:19:00.383Z,12.00
2022-09-17T00:21:28.605Z,12.00
2022-09-17T00:24:00.981Z,12.00
2022-09-17T00:26:28.712Z,11.90
2022-09-17T00:28:57.645Z,11.90
2022-09-17T00:31:25.907Z,11.90
2022-09-17T00:33:53.483Z,11.80
2022-09-17T00:36:21.178Z,11.80
2022-09-17T00:38:53.079Z,11.80
2022-09-17T00:41:21.638Z,11.80
2022-09-17T00:43:52.097Z,11.80
2022-09-17T00:46:34.207Z,11.70
2022-09-17T00:49:06.144Z,11.70
2022-09-17T00:51:44.453Z,11.70
2022-09-17T00:54:12.047Z,11.70
2022-09-17T00:56:41.316Z,11.70
2022-09-17T00:59:09.005Z,11.70
2022-09-17T01:01:37.037Z,11.80
2022-09-17T01:04:04.070Z,11.80
2022-09-17T01:06:47.866Z,11.90
2022-09-17T01:09:32.842Z,11.90
2022-09-17T01:12:20.688Z,11.90
2022-09-17T01:15:16.663Z,12.00
2022-09-17T01:18:01.640Z,12.00
2022-09-17T01:21:05.397Z,12.00
2022-09-17T01:23:47.060Z,12.00
2022-09-17T01:26:22.593Z,12.10
2022-09-17T01:29:15.157Z,12.10
2022-09-17T01:31:54.525Z,12.10
2022-09-17T01:34:59.569Z,12.10
2022-09-17T01:37:48.474Z,12.10
2022-09-17T01:40:28.779Z,12.00
2022-09-17T01:43:12.353Z,12.00
2022-09-17T01:45:45.280Z,11.90
2022-09-17T01:48:20.882Z,11.90
2022-09-17T01:51:07.556Z,11.90
2022-09-17T01:53:44.626Z,11.80
2022-09-17T01:56:17.312Z,11.70
2022-09-17T01:58:50.961Z,11.70
2022-09-17T02:01:20.689Z,11.60
2022-09-17T02:04:06.731Z,11.60
2022-09-17T02:06:38.721Z,11.50
2022-09-17T02:09:21.066Z,11.50
2022-09-17T02:11:59.244Z,11.40
2022-09-17T02:14:36.310Z,11.40
2022-09-17T02:17:16.864Z,11.40
2022-09-17T02:19:44.395Z,11.40
2022-09-17T02:22:18.819Z,11.30
2022-09-17T02:25:08.526Z,11.30
2022-09-17T02:27:38.834Z,11.30
2022-09-17T02:30:06.764Z,11.20
2022-09-17T02:32:34.003Z,11.20
2022-09-17T02:35:01.066Z,11.20
2022-09-17T02:37:27.999Z,11.10
2022-09-17T02:39:55.780Z,11.10
2022-09-17T02:42:48.244Z,11.10
2022-09-17T02:45:40.926Z,11.10
2022-09-17T02:48:26.129Z,11.10
2022-09-17T02:51:05.108Z,11.20
2022-09-17T02:53:38.295Z,11.20
2022-09-17T02:56:39.000Z,11.20
2022-09-17T02:59:27.230Z,11.20
2022-09-17T03:02:14.203Z,11.30
2022-09-17T03:04:42.143Z,11.30
2022-09-17T03:07:12.160Z,11.30
2022-09-17T03:09:39.732Z,11.30
2022-09-17T03:12:07.033Z,11.30
2022-09-17T03:14:33.991Z,11.30
2022-09-17T03:17:00.925Z,11.30
2022-09-17T03:19:28.113Z,11.40
2022-09-17T03:21:55.309Z,11.30
2022-09-17T03:24:22.247Z,11.30
2022-09-17T03:26:49.593Z,11.30
2022-09-17T03:29:16.990Z,11.40
2022-09-17T03:31:43.978Z,11.40
2022-09-17T03:34:11.035Z,11.40
2022-09-17T03:36:37.982Z,11.40
2022-09-17T03:39:05.504Z,11.40
2022-09-17T03:41:32.468Z,11.40
2022-09-17T03:43:59.371Z,11.40
2022-09-17T03:46:26.401Z,11.40
2022-09-17T03:48:53.412Z,11.40
2022-09-17T03:51:20.567Z,11.40
2022-09-17T03:53:47.492Z,11.40
2022-09-17T03:56:14.693Z,11.40
2022-09-17T03:58:41.630Z,11.50
2022-09-17T04:01:08.572Z,11.50
2022-09-17T04:03:35.553Z,11.50
2022-09-17T04:06:02.648Z,11.50
2022-09-17T04:08:29.533Z,11.50
2022-09-17T04:10:56.532Z,11.50
2022-09-17T04:13:23.530Z,11.40
2022-09-17T04:15:50.587Z,11.50
2022-09-17T04:18:17.685Z,11.50
2022-09-17T04:20:44.733Z,11.40
2022-09-17T04:23:12.226Z,11.40
2022-09-17T04:25:39.426Z,11.40
2022-09-17T04:28:06.510Z,11.40
2022-09-17T04:30:34.422Z,11.40
2022-09-17T04:33:01.363Z,11.40
2022-09-17T04:35:28.515Z,11.40
2022-09-17T04:37:57.108Z,11.40
2022-09-17T04:40:26.527Z,11.40
2022-09-17T04:42:59.597Z,11.50
2022-09-17T04:45:27.177Z,11.50
2022-09-17T04:47:54.064Z,11.50
2022-09-17T04:50:21.770Z,11.60
2022-09-17T04:52:49.129Z,11.60
2022-09-17T04:55:16.635Z,11.60
2022-09-17T04:57:52.119Z,11.60
2022-09-17T05:00:21.124Z,11.60
2022-09-17T05:02:49.870Z,11.60
2022-09-17T05:05:19.062Z,11.70
2022-09-17T05:07:46.592Z,11.60
2022-09-17T05:10:16.674Z,11.70
2022-09-17T05:12:57.209Z,11.70
2022-09-17T05:15:25.986Z,11.70
2022-09-17T05:17:53.000Z,11.70
2022-09-17T05:20:20.464Z,11.70
2022-09-17T05:22:49.714Z,11.70
2022-09-17T05:25:18.128Z,11.70
2022-09-17T05:27:45.732Z,11.70
2022-09-17T05:30:13.260Z,11.70
2022-09-17T05:32:40.944Z,11.70
2022-09-17T05:35:09.462Z,11.70
2022-09-17T05:37:37.617Z,11.70
2022-09-17T05:40:09.347Z,11.70
2022-09-17T05:42:36.894Z,11.80
2022-09-17T05:45:05.755Z,11.80
2022-09-17T05:47:32.610Z,11.80
2022-09-17T05:49:59.941Z,11.90
2022-09-17T05:52:30.106Z,11.90
2022-09-17T05:54:57.307Z,11.90
2022-09-17T05:57:24.873Z,11.90
2022-09-17T05:59:51.873Z,12.00
2022-09-17T06:02:18.958Z,11.90
2022-09-17T06:04:46.452Z,11.90
2022-09-17T06:07:13.632Z,12.00
2022-09-17T06:09:41.337Z,12.00
2022-09-17T06:12:08.641Z,12.00
2022-09-17T06:14:35.747Z,12.10
2022-09-17T06:17:02.659Z,12.10
2022-09-17T06:19:29.631Z,12.10
2022-09-17T06:21:56.593Z,12.20
2022-09-17T06:24:23.524Z,12.20
2022-09-17T06:26:52.522Z,12.30
2022-09-17T06:29:19.973Z,12.30
2022-09-17T06:31:49.300Z,12.40
2022-09-17T06:34:17.817Z,12.40
2022-09-17T06:36:44.754Z,12.40
2022-09-17T06:39:12.011Z,12.50
2022-09-17T06:41:39.159Z,12.50
2022-09-17T06:44:06.154Z,12.50
2022-09-17T06:46:33.169Z,12.50
2022-09-17T06:49:00.193Z,12.60
2022-09-17T06:51:27.174Z,12.60
2022-09-17T06:53:54.135Z,12.60
2022-09-17T06:56:21.084Z,12.60
2022-09-17T06:58:48.015Z,12.60
2022-09-17T07:01:15.191Z,12.60
2022-09-17T07:03:43.581Z,12.60
2022-09-17T07:06:11.726Z,12.70
2022-09-17T07:08:39.935Z,12.70
2022-09-17T07:11:08.184Z,12.80
2022-09-17T07:13:35.474Z,12.80
2022-09-17T07:16:05.118Z,12.90
2022-09-17T07:18:32.746Z,13.00
2022-09-17T07:21:01.768Z,13.00
2022-09-17T07:23:32.154Z,13.10
2022-09-17T07:26:08.554Z,13.10
2022-09-17T07:28:38.407Z,13.30
2022-09-17T07:31:06.523Z,13.30
2022-09-17T07:33:36.560Z,13.30
2022-09-17T07:36:07.567Z,13.40
2022-09-17T07:38:35.298Z,13.40
2022-09-17T07:41:13.374Z,13.40
2022-09-17T07:43:41.634Z,13.40
2022-09-17T07:46:17.125Z,13.50
2022-09-17T07:48:44.239Z,13.40
2022-09-17T07:51:16.677Z,13.50
2022-09-17T07:53:43.712Z,13.50
2022-09-17T07:56:12.016Z,13.50
2022-09-17T07:58:39.718Z,13.50
2022-09-17T08:01:16.759Z,13.50
2022-09-17T08:03:48.172Z,13.50
2022-09-17T08:06:17.910Z,13.50
2022-09-17T08:08:44.835Z,13.50
2022-09-17T08:11:18.141Z,13.50
2022-09-17T08:13:52.674Z,13.50
2022-09-17T08:16:21.378Z,13.40
2022-09-17T08:18:49.797Z,13.40
2022-09-17T08:21:18.658Z,13.50
2022-09-17T08:23:46.091Z,13.40
2022-09-17T08:26:18.469Z,13.50
2022-09-17T08:28:49.423Z,13.40
2022-09-17T08:31:18.982Z,13.40
2022-09-17T08:33:47.434Z,13.40
2022-09-17T08:36:16.465Z,13.50
2022-09-17T08:38:44.390Z,13.60
2022-09-17T08:41:11.570Z,13.60
2022-09-17T08:43:50.573Z,13.60
2022-09-17T08:46:17.600Z,13.70
2022-09-17T08:49:22.122Z,13.70
2022-09-17T08:52:10.145Z,13.80
2022-09-17T08:55:15.407Z,13.80
2022-09-17T08:58:19.318Z,13.90
2022-09-17T09:01:10.325Z,14.00
2022-09-17T09:04:16.513Z,14.10
2022-09-17T09:06:49.300Z,14.20
2022-09-17T09:09:21.113Z,14.20
2022-09-17T09:11:51.035Z,14.20
2022-09-17T09:14:29.447Z,14.30
2022-09-17T09:16:57.402Z,14.20
2022-09-17T09:19:27.062Z,14.30
2022-09-17T09:22:31.674Z,14.30
2022-09-17T09:25:25.130Z,14.30
2022-09-17T09:28:19.324Z,14.50
2022-09-17T09:31:09.839Z,14.50
2022-09-17T09:33:41.615Z,14.60
2022-09-17T09:36:15.353Z,14.60
2022-09-17T09:39:17.907Z,14.50
2022-09-17T09:41:51.436Z,14.50
2022-09-17T09:44:19.084Z,14.40
2022-09-17T09:47:13.532Z,14.50
2022-09-17T09:49:45.516Z,14.50
2022-09-17T09:52:46.133Z,14.50
2022-09-17T09:55:40.621Z,14.60
2022-09-17T09:58:38.623Z,14.70
2022-09-17T10:01:39.828Z,14.70
2022-09-17T10:04:28.422Z,14.80
2022-09-17T10:07:10.777Z,14.90
2022-09-17T10:09:44.992Z,15.00
2022-09-17T10:12:11.913Z,15.00
2022-09-17T10:14:41.295Z,15.10
2022-09-17T10:17:20.971Z,15.10
2022-09-17T10:20:20.588Z,15.10
2022-09-17T10:22:50.168Z,15.10
2022-09-17T10:25:34.080Z,15.00
2022-09-17T10:28:21.473Z,15.00
2022-09-17T10:31:08.588Z,15.00
2022-09-17T10:33:53.633Z,14.90
2022-09-17T10:36:43.953Z,14.90
2022-09-17T10:39:27.742Z,14.90
2022-09-17T10:41:56.895Z,14.90
2022-09-17T10:44:29.482Z,15.00
2022-09-17T10:47:22.468Z,15.00
2022-09-17T10:50:02.679Z,15.00
2022-09-17T10:52:35.892Z,15.00
2022-09-17T10:55:23.084Z,14.90
2022-09-17T10:58:07.764Z,14.90
2022-09-17T11:00:49.593Z,14.80
2022-09-17T11:03:45.679Z,14.80
2022-09-17T11:06:54.672Z,14.80
2022-09-17T11:10:06.427Z,14.70
2022-09-17T11:12:55.328Z,14.60
2022-09-17T11:15:47.679Z,14.60
2022-09-17T11:18:38.447Z,14.60
2022-09-17T11:21:40.549Z,14.60
2022-09-17T11:24:25.967Z,14.50
2022-09-17T11:26:56.748Z,14.50
2022-09-17T11:29:39.250Z,14.50
2022-09-17T11:32:44.453Z,14.50
2022-09-17T11:35:26.308Z,14.40
2022-09-17T11:38:20.203Z,14.30
2022-09-17T11:41:07.685Z,14.20
2022-09-17T11:44:00.034Z,14.20
2022-09-17T11:46:44.565Z,14.20
2022-09-17T11:49:34.165Z,14.10
2022-09-17T11:52:30.320Z,14.20
2022-09-17T11:55:26.284Z,14.10
2022-09-17T11:58:00.946Z,14.10
2022-09-17T12:00:32.336Z,14.10
2022-09-17T12:03:36.701Z,14.10
2022-09-17T12:06:15.433Z,14.20
2022-09-17T12:09:16.202Z,14.30
2022-09-17T12:11:49.336Z,14.40
2022-09-17T12:14:44.779Z,14.40
2022-09-17T12:17:21.594Z,14.40
2022-09-17T12:19:54.920Z,14.30
2022-09-17T12:22:28.485Z,14.20
2022-09-17T12:24:55.679Z,14.20
2022-09-17T12:27:34.442Z,14.10
2022-09-17T12:30:22.627Z,14.10
2022-09-17T12:36:05.168Z,14.00
2022-09-17T12:39:10.041Z,13.90
2022-09-17T12:41:47.891Z,13.90
2022-09-17T12:44:17.889Z,13.90
2022-09-17T12:46:54.718Z,13.90
2022-09-17T12:49:21.801Z,13.90
2022-09-17T12:51:51.802Z,13.90
2022-09-17T12:54:45.531Z,13.90
2022-09-17T12:57:28.236Z,13.90
2022-09-17T13:00:08.340Z,13.90
2022-09-17T13:02:57.207Z,13.90
2022-09-17T13:06:02.579Z,13.90
2022-09-17T13:08:44.557Z,13.90
2022-09-17T13:11:20.406Z,13.90
2022-09-17T13:13:55.539Z,13.80
2022-09-17T13:16:38.547Z,13.80
2022-09-17T13:19:27.429Z,13.80
2022-09-17T13:22:00.552Z,13.80
2022-09-17T13:24:31.611Z,13.90
2022-09-17T13:27:01.552Z,13.90
2022-09-17T13:29:46.860Z,14.00
2022-09-17T13:32:32.490Z,14.00
2022-09-17T13:35:11.328Z,13.90
2022-09-17T13:37:49.099Z,13.90
2022-09-17T13:40:26.024Z,13.90
2022-09-17T13:42:56.043Z,13.90
2022-09-17T13:45:25.820Z,13.80
2022-09-17T13:48:00.879Z,13.80
2022-09-17T13:50:27.861Z,13.80
2022-09-17T13:52:58.185Z,13.80
2022-09-17T13:55:38.143Z,13.80
2022-09-17T13:58:23.247Z,13.80
2022-09-17T14:01:12.002Z,13.80
2022-09-17T14:03:43.968Z,13.80
2022-09-17T14:06:22.123Z,13.80
2022-09-17T14:08:52.028Z,13.70
2022-09-17T14:11:28.706Z,13.70
2022-09-17T14:14:18.563Z,13.70
2022-09-17T14:16:50.475Z,13.80
2022-09-17T14:19:29.369Z,13.80
2022-09-17T14:22:00.749Z,13.80
2022-09-17T14:24:37.009Z,13.80
2022-09-17T14:27:25.410Z,13.90
2022-09-17T14:30:22.438Z,13.90
2022-09-17T14:33:01.405Z,13.90
2022-09-17T14:35:48.859Z,13.90
2022-09-17T14:38:22.165Z,13.90
2022-09-17T14:41:17.939Z,13.90
2022-09-17T14:44:05.864Z,14.00
2022-09-17T14:46:40.683Z,14.00
2022-09-17T14:49:22.909Z,13.90
2022-09-17T14:51:51.442Z,13.90
2022-09-17T14:54:21.512Z,13.80
2022-09-17T14:56:50.359Z,13.70
2022-09-17T14:59:33.468Z,13.70
2022-09-17T15:02:01.077Z,13.70
2022-09-17T15:04:28.996Z,13.80
2022-09-17T15:07:10.329Z,13.80
2022-09-17T15:09:37.488Z,13.80
2022-09-17T15:12:06.133Z,13.90
2022-09-17T15:14:40.024Z,13.90
2022-09-17T15:17:13.967Z,13.90
2022-09-17T15:19:51.611Z,13.90
2022-09-17T15:22:25.367Z,14.00
2022-09-17T15:24:57.117Z,13.90
2022-09-17T15:27:40.617Z,13.90
2022-09-17T15:30:15.076Z,13.90
2022-09-17T15:33:04.281Z,13.90
2022-09-17T15:35:32.979Z,13.90
2022-09-17T15:40:53.042Z,13.90
2022-09-17T15:43:29.672Z,13.90
2022-09-17T15:46:00.832Z,14.00
2022-09-17T15:48:27.725Z,14.00
2022-09-17T15:50:57.367Z,14.00
2022-09-17T15:53:31.641Z,14.00
2022-09-17T15:56:23.655Z,14.00
2022-09-17T15:58:54.801Z,14.00
2022-09-17T16:01:45.073Z,13.90
2022-09-17T16:04:21.047Z,13.90
2022-09-17T16:07:08.073Z,13.80
2022-09-17T16:09:38.153Z,13.80
2022-09-17T16:12:05.468Z,13.70
2022-09-17T16:14:32.459Z,13.70
2022-09-17T16:17:00.030Z,13.70
2022-09-17T16:19:27.001Z,13.60
2022-09-17T16:21:54.007Z,13.60
2022-09-17T16:24:20.999Z,13.50
2022-09-17T16:26:47.922Z,13.40
2022-09-17T16:29:17.775Z,13.50
2022-09-17T16:31:47.654Z,13.40
2022-09-17T16:34:14.688Z,13.40
2022-09-17T16:36:41.668Z,13.40
2022-09-17T16:39:08.592Z,13.40
2022-09-17T16:41:35.579Z,13.30
2022-09-17T16:44:02.717Z,13.30
2022-09-17T16:46:29.725Z,13.20
2022-09-17T16:48:57.498Z,13.20
2022-09-17T16:51:24.528Z,13.20
2022-09-17T16:53:51.732Z,13.20
2022-09-17T16:56:18.727Z,13.20
2022-09-17T16:58:45.789Z,13.10
2022-09-17T17:01:14.963Z,13.10
2022-09-17T17:03:42.677Z,13.10
2022-09-17T17:06:17.061Z,13.00
2022-09-17T17:08:44.097Z,13.00
2022-09-17T17:11:11.258Z,12.90
2022-09-17T17:13:38.427Z,12.90
2022-09-17T17:16:10.382Z,12.80
2022-09-17T17:18:38.007Z,12.90
2022-09-17T17:21:07.001Z,12.90
2022-09-17T17:23:35.079Z,12.80
2022-09-17T17:26:03.721Z,12.90
2022-09-17T17:28:35.799Z,12.80
2022-09-17T17:31:04.262Z,12.90
2022-09-17T17:33:31.320Z,12.90
2022-09-17T17:36:07.587Z,12.90
2022-09-17T17:38:36.198Z,12.80
2022-09-17T17:41:09.819Z,12.70
2022-09-17T17:43:37.954Z,12.70
2022-09-17T17:46:12.128Z,12.60
2022-09-17T17:48:39.279Z,12.60
2022-09-17T17:51:08.851Z,12.60
2022-09-17T17:53:36.433Z,12.60
2022-09-17T17:56:08.143Z,12.60
2022-09-17T17:58:36.350Z,12.60
2022-09-17T18:01:14.260Z,12.50
2022-09-17T18:03:41.836Z,12.50
2022-09-17T18:06:09.699Z,12.50
2022-09-17T18:08:41.606Z,12.50
2022-09-17T18:11:11.325Z,12.50
2022-09-17T18:13:40.298Z,12.50
2022-09-17T18:16:09.310Z,12.40
2022-09-17T18:18:44.414Z,12.40
2022-09-17T18:21:22.123Z,12.40
2022-09-17T18:23:50.250Z,12.40
2022-09-17T18:26:26.644Z,12.40
2022-09-17T18:28:53.911Z,12.40
2022-09-17T18:31:35.854Z,12.40
2022-09-17T18:34:13.511Z,12.40
2022-09-17T18:36:41.808Z,12.40
2022-09-17T18:42:01.050Z,12.30
2022-09-17T18:44:28.053Z,12.30
2022-09-17T18:46:55.210Z,12.30
2022-09-17T18:49:22.484Z,12.20
2022-09-17T18:51:49.544Z,12.20
2022-09-17T18:54:16.707Z,12.20
2022-09-17T18:56:43.769Z,12.20
2022-09-17T18:59:11.247Z,12.20
2022-09-17T19:01:38.615Z,12.10
2022-09-17T19:04:07.997Z,12.10
2022-09-17T19:06:36.195Z,12.10
2022-09-17T19:09:04.833Z,12.00
2022-09-17T19:11:31.837Z,12.00
2022-09-17T19:13:58.911Z,12.00
2022-09-17T19:16:26.090Z,12.00
2022-09-17T19:18:53.114Z,11.90
2022-09-17T19:21:23.362Z,11.90
2022-09-17T19:23:51.949Z,11.90
2022-09-17T19:26:21.786Z,11.80
2022-09-17T19:28:52.293Z,11.80
2022-09-17T19:31:19.879Z,11.80
2022-09-17T19:33:47.740Z,11.70
2022-09-17T19:36:18.528Z,11.70
2022-09-17T19:38:46.459Z,11.70
2022-09-17T19:41:16.799Z,11.70
2022-09-17T19:43:45.242Z,11.70
2022-09-17T19:46:13.740Z,11.70
2022-09-17T19:48:45.259Z,11.60
2022-09-17T19:51:13.098Z,11.60
2022-09-17T19:53:40.353Z,11.60
2022-09-17T19:56:10.773Z,11.60
2022-09-17T19:58:37.859Z,11.60
2022-09-17T20:01:04.951Z,11.50
2022-09-17T20:03:32.022Z,11.50
2022-09-17T20:06:04.253Z,11.60
2022-09-17T20:08:31.761Z,11.60
2022-09-17T20:11:10.273Z,11.60
2022-09-17T20:13:38.204Z,11.60
2022-09-17T20:16:22.259Z,11.50
2022-09-17T20:18:50.295Z,11.50
2022-09-17T20:21:20.193Z,11.50
2022-09-17T20:23:47.262Z,11.50
2022-09-17T20:26:15.280Z,11.50
2022-09-17T20:28:42.922Z,11.40
2022-09-17T20:31:21.763Z,11.40
2022-09-17T20:33:53.299Z,11.30
2022-09-17T20:36:22.704Z,11.30
2022-09-17T20:41:40.813Z,11.20
2022-09-17T20:44:08.020Z,11.10
2022-09-17T20:46:35.170Z,11.10
2022-09-17T20:49:02.282Z,11.10
2022-09-17T20:51:30.394Z,11.00
2022-09-17T20:53:57.970Z,11.00
2022-09-17T20:56:28.195Z,11.00
2022-09-17T20:59:09.607Z,11.00
2022-09-17T21:01:38.015Z,11.00
2022-09-17T21:04:07.491Z,10.90
2022-09-17T21:06:41.237Z,10.90
2022-09-17T21:09:15.838Z,10.80
2022-09-17T21:11:44.571Z,10.80
2022-09-17T21:14:12.033Z,10.70
2022-09-17T21:16:39.225Z,10.70
2022-09-17T21:19:09.607Z,10.70
2022-09-17T21:21:36.650Z,10.70
2022-09-17T21:24:05.965Z,10.60
2022-09-17T21:26:34.986Z,10.60
2022-09-17T21:29:02.600Z,10.60
2022-09-17T21:31:33.227Z,10.50
2022-09-17T21:34:02.649Z,10.50
2022-09-17T21:36:32.283Z,10.50
2022-09-17T21:39:26.734Z,10.40
2022-09-17T21:41:54.805Z,10.40
2022-09-17T21:44:22.030Z,10.40
2022-09-17T21:46:49.921Z,10.30
2022-09-17T21:49:17.530Z,10.30
2022-09-17T21:51:44.454Z,10.20
2022-09-17T21:54:13.822Z,10.20
2022-09-17T21:56:40.953Z,10.20
2022-09-17T21:59:11.278Z,10.20
2022-09-17T22:01:41.201Z,10.20
2022-09-17T22:04:10.607Z,10.10
2022-09-17T22:06:38.300Z,10.10
2022-09-17T22:09:07.736Z,10.00
2022-09-17T22:11:38.501Z,10.10
2022-09-17T22:14:10.940Z,10.00
2022-09-17T22:16:41.374Z,10.00
2022-09-17T22:19:12.658Z,10.00
2022-09-17T22:21:42.596Z,10.00
2022-09-17T22:24:10.819Z,10.00
2022-09-17T22:26:41.847Z,10.00
2022-09-17T22:29:13.608Z,10.00
2022-09-17T22:31:40.698Z,9.90
2022-09-17T22:34:12.329Z,9.90
2022-09-17T22:36:39.741Z,9.80
2022-09-17T22:39:07.714Z,9.80
2022-09-17T22:41:37.263Z,9.80
2022-09-17T22:44:06.498Z,9.80
2022-09-17T22:46:38.392Z,9.80
2022-09-17T22:49:06.204Z,9.70
2022-09-17T22:51:33.201Z,9.70
2022-09-17T22:54:00.877Z,9.70
2022-09-17T22:56:29.058Z,9.60
2022-09-17T22:58:57.715Z,9.60
2022-09-17T23:01:30.474Z,9.60
2022-09-17T23:03:59.407Z,9.50
2022-09-17T23:06:29.273Z,9.50
2022-09-17T23:08:57.059Z,9.50
2022-09-17T23:11:32.204Z,9.40
2022-09-17T23:14:02.419Z,9.40
2022-09-17T23:16:38.111Z,9.40
2022-09-17T23:19:05.578Z,9.40
2022-09-17T23:21:32.713Z,9.30
2022-09-17T23:23:59.794Z,9.30
2022-09-17T23:26:27.749Z,9.20
2022-09-17T23:28:54.931Z,9.20
2022-09-17T23:31:28.487Z,9.30
2022-09-17T23:33:56.805Z,9.20
2022-09-17T23:36:26.952Z,9.20
2022-09-17T23:38:55.782Z,9.20
2022-09-17T23:41:28.312Z,9.20
2022-09-17T23:43:57.981Z,9.20
2022-09-17T23:46:26.864Z,9.20
2022-09-17T23:48:54.463Z,9.20
2022-09-17T23:51:23.462Z,9.20
2022-09-17T23:53:50.696Z,9.20
2022-09-17T23:56:26.454Z,9.20
2022-09-17T23:58:55.111Z,9.20
